CheckWX is a tool to help pilots better visualize weather data.  It is not intended as a substitute for an official pre-flight weather briefing.

08:50:54 UTC

KPNM METAR
Princeton Municipal Airport
Princeton, Minnesota, USA
Current

15 mins ago

KPNM 190836Z AUTO 04010G23KT 10SM -RA OVC012 06/05 A2971 RMK AO2 P0001 P0001
Observed
May-19 @ 08:36 UTC
Wind
  • 040° at 10 KTS
  • Gusting to 23 KTS
Visibility
10 SM
Flight Rules
MVFR
Conditions
Light Rain
Cloud Levels
  • Overcast at 1,200' AGL
Temperature
C / 43°F
Dewpoint
C / 41°F
Humidity
93%
Altimeter
29.71" Hg
Pressure
1006.12 hPa
Current Rain
0.01"
Previous

35 mins ago

KPNM 190816Z AUTO 05012G19KT 10SM -DZ OVC012 06/05 A2972 RMK AO2 P0001 P0001
Observed
May-19 @ 08:16 UTC
Wind
  • 050° at 12 KTS
  • Gusting to 19 KTS
Visibility
10 SM
Flight Rules
MVFR
Conditions
Light Drizzle
Cloud Levels
  • Overcast at 1,200' AGL
Temperature
C / 43°F
Dewpoint
C / 41°F
Humidity
93%
Altimeter
29.72" Hg
Pressure
1006.42 hPa
Current Rain
0.01"
Previous

56 mins ago

KPNM 190755Z AUTO 04012G19KT 10SM -RA OVC012 06/05 A2972 RMK AO2 P0003 P0003
Observed
May-19 @ 07:55 UTC
Wind
  • 040° at 12 KTS
  • Gusting to 19 KTS
Visibility
10 SM
Flight Rules
MVFR
Conditions
Light Rain
Cloud Levels
  • Overcast at 1,200' AGL
Temperature
C / 43°F
Dewpoint
C / 41°F
Humidity
93%
Altimeter
29.72" Hg
Pressure
1006.42 hPa
Current Rain
0.03"